Buffalo Narrows, Canada
Current Conditions -  °F | °C
As of 10:00 PM on Thursday 27 Nov 2014 (Local Time) from CYVT Reporting Station
Broken Clouds Broken Clouds  
Wind Chill: -23°   Ceiling: 18000
Heat Index: -9°   Visibility: 15mi
Dew Point: -15°   Wind: 6mph
Humidity: 77%   Direction: 360°N
Pressure: 30.22"   Gusts: NA
Location:  55.87°N, 108.48°W
Report Text: CYVT 280400Z 36005KT 15SM SCT130 BKN180 M23/M26 A3022 RMK AC3AS4 SN COV/MUCH LOOSE LAST STFD OB/NXT 281200 UTC SLP285
Loading
Personal Weather Stations






























Interactive Weather Map New forecast layout! Learn more

10-Day Weather Forecast

Advertisements
Track Severe Weather on mobile